PWSweather.com
Personal Weather Stations
Station Observations
OPENSRS
Liberty Village, Toronto, ON M6K 3M1

Liberty VillageToronto, ON M6K 3M1

Lat: 43.63831, Lon: -79.42566

Elevation: 303

Station Type: Davis Instruments Vantage Pro 2

Latest ConditionsUpdated 10:20:06 AM EDT Monday, Mar 30, 2015
Currently Today's Max Today's Min Today's Average
Temperature 41.4°F5.2°C 41.4°F5.2°C 36.0°F2.2°C 39.2°F4.0°C
Dew Point 30.2°F-1.0°C 36.6°F2.6°C 30.2°F-1.0°C 32.7°F0.4°C
Winds 24.0 mph NW38.6 kmh NW 24.0 mph NW38.6 kmh NW - 7.1 mph 11.4 kmh
Wind Gusts 25.0 mph40.2 kmh 26.0 mph41.8 kmh - -
Humidity 64% 90% 64% 78%
Pressure 29.73 in1006.8 mb 29.78 in1008.5 mb 29.58 in1001.7 mb -
Hour Temp Dew Point Humidity Winds Wind Gusts Pressure Precip Precip Rate Daily Precip Total
10:20 AM 41.4°F5.2°C 30.2°F-1.0°C 64% 24.0 mph NW38.6 kmh NW 25.0 mph40.2 kmh 29.73 in1006.8 mb 0.00 in0.0 mm 0.00 in0.0 mm 0.00 in0.0 mm
10:19 AM 41.3°F5.2°C 30.4°F-0.9°C 65% 22.0 mph NW35.4 kmh NW 25.0 mph40.2 kmh 29.73 in1006.8 mb 0.00 in0.0 mm 0.00 in0.0 mm 0.00 in0.0 mm
10:18 AM 41.2°F5.1°C 30.3°F-0.9°C 65% 7.0 mph W11.3 kmh W 25.0 mph40.2 kmh 29.73 in1006.8 mb 0.00 in0.0 mm 0.00 in0.0 mm 0.00 in0.0 mm
10:15 AM 40.9°F4.9°C 30.4°F-0.9°C 66% 8.0 mph WNW12.9 kmh WNW 25.0 mph40.2 kmh 29.73 in1006.8 mb 0.00 in0.0 mm 0.00 in0.0 mm 0.00 in0.0 mm
10:14 AM 40.8°F4.9°C 30.3°F-0.9°C 66% 4.0 mph NW6.4 kmh NW 25.0 mph40.2 kmh 29.73 in1006.8 mb 0.00 in0.0 mm 0.00 in0.0 mm 0.00 in0.0 mm
10:13 AM 40.8°F4.9°C 30.7°F-0.7°C 67% 9.0 mph W14.5 kmh W 25.0 mph40.2 kmh 29.73 in1006.8 mb 0.00 in0.0 mm 0.00 in0.0 mm 0.00 in0.0 mm
10:10 AM 40.6°F4.8°C 30.2°F-1.0°C 66% 12.0 mph WNW19.3 kmh WNW 25.0 mph40.2 kmh 29.73 in1006.8 mb 0.00 in0.0 mm 0.00 in0.0 mm 0.00 in0.0 mm
10:09 AM 40.6°F4.8°C 30.2°F-1.0°C 66% 10.0 mph WNW16.1 kmh WNW 25.0 mph40.2 kmh 29.73 in1006.8 mb 0.00 in0.0 mm 0.00 in0.0 mm 0.00 in0.0 mm
10:08 AM 40.6°F4.8°C 30.2°F-1.0°C 66% 10.0 mph NW16.1 kmh NW 25.0 mph40.2 kmh 29.72 in1006.4 mb 0.00 in0.0 mm 0.00 in0.0 mm 0.00 in0.0 mm
10:05 AM 40.6°F4.8°C 30.2°F-1.0°C 66% 9.0 mph WNW14.5 kmh WNW 25.0 mph40.2 kmh 29.72 in1006.4 mb 0.00 in0.0 mm 0.00 in0.0 mm 0.00 in0.0 mm
10:04 AM 40.7°F4.8°C 30.2°F-1.0°C 66% 20.0 mph NW32.2 kmh NW 25.0 mph40.2 kmh 29.73 in1006.8 mb 0.00 in0.0 mm 0.00 in0.0 mm 0.00 in0.0 mm
10:03 AM 40.8°F4.9°C 30.3°F-0.9°C 66% 17.0 mph NW27.4 kmh NW 22.0 mph35.4 kmh 29.72 in1006.4 mb 0.00 in0.0 mm 0.00 in0.0 mm 0.00 in0.0 mm
10:00 AM 40.8°F4.9°C 30.7°F-0.7°C 67% 6.0 mph NW9.7 kmh NW 6.0 mph9.7 kmh 29.72 in1006.4 mb 0.00 in0.0 mm 0.00 in0.0 mm 0.00 in0.0 mm
09:59 AM 40.7°F4.8°C 30.6°F-0.8°C 67% 7.0 mph NW11.3 kmh NW 26.0 mph41.8 kmh 29.72 in1006.4 mb 0.00 in0.0 mm 0.00 in0.0 mm 0.00 in0.0 mm
09:58 AM 40.6°F4.8°C 30.5°F-0.8°C 67% 7.0 mph WSW11.3 kmh WSW 26.0 mph41.8 kmh 29.72 in1006.4 mb 0.00 in0.0 mm 0.00 in0.0 mm 0.00 in0.0 mm
09:55 AM 40.3°F4.6°C 30.2°F-1.0°C 67% 8.0 mph NW12.9 kmh NW 26.0 mph41.8 kmh 29.72 in1006.4 mb 0.00 in0.0 mm 0.00 in0.0 mm 0.00 in0.0 mm
09:54 AM 40.3°F4.6°C 30.6°F-0.8°C 68% 10.0 mph WNW16.1 kmh WNW 26.0 mph41.8 kmh 29.72 in1006.4 mb 0.00 in0.0 mm 0.00 in0.0 mm 0.00 in0.0 mm
09:53 AM 40.3°F4.6°C 30.6°F-0.8°C 68% 9.0 mph NW14.5 kmh NW 26.0 mph41.8 kmh 29.72 in1006.4 mb 0.00 in0.0 mm 0.00 in0.0 mm 0.00 in0.0 mm
09:50 AM 40.3°F4.6°C 30.6°F-0.8°C 68% 11.0 mph NW17.7 kmh NW 26.0 mph41.8 kmh 29.72 in1006.4 mb 0.00 in0.0 mm 0.00 in0.0 mm 0.00 in0.0 mm
09:49 AM 40.3°F4.6°C 30.6°F-0.8°C 68% 17.0 mph WNW27.4 kmh WNW 26.0 mph41.8 kmh 29.72 in1006.4 mb 0.00 in0.0 mm 0.00 in0.0 mm 0.00 in0.0 mm
09:48 AM 40.3°F4.6°C 30.6°F-0.8°C 68% 10.0 mph WNW16.1 kmh WNW 26.0 mph41.8 kmh 29.72 in1006.4 mb 0.00 in0.0 mm 0.00 in0.0 mm 0.00 in0.0 mm
09:45 AM 40.3°F4.6°C 30.6°F-0.8°C 68% 12.0 mph W19.3 kmh W 26.0 mph41.8 kmh 29.72 in1006.4 mb 0.00 in0.0 mm 0.00 in0.0 mm 0.00 in0.0 mm
09:44 AM 40.3°F4.6°C 30.6°F-0.8°C 68% 7.0 mph W11.3 kmh W 26.0 mph41.8 kmh 29.72 in1006.4 mb 0.00 in0.0 mm 0.00 in0.0 mm 0.00 in0.0 mm
09:43 AM 40.3°F4.6°C 30.6°F-0.8°C 68% 10.0 mph W16.1 kmh W 26.0 mph41.8 kmh 29.72 in1006.4 mb 0.00 in0.0 mm 0.00 in0.0 mm 0.00 in0.0 mm
09:40 AM 40.4°F4.7°C 30.7°F-0.7°C 68% 18.0 mph WSW29.0 kmh WSW 26.0 mph41.8 kmh 29.72 in1006.4 mb 0.00 in0.0 mm 0.00 in0.0 mm 0.00 in0.0 mm
09:39 AM 40.3°F4.6°C 30.6°F-0.8°C 68% 6.0 mph NW9.7 kmh NW 26.0 mph41.8 kmh 29.72 in1006.4 mb 0.00 in0.0 mm 0.00 in0.0 mm 0.00 in0.0 mm
09:38 AM 40.3°F4.6°C 30.6°F-0.8°C 68% 11.0 mph WNW17.7 kmh WNW 26.0 mph41.8 kmh 29.71 in1006.1 mb 0.00 in0.0 mm 0.00 in0.0 mm 0.00 in0.0 mm
09:35 AM 40.4°F4.7°C 30.7°F-0.7°C 68% 6.0 mph NW9.7 kmh NW 26.0 mph41.8 kmh 29.71 in1006.1 mb 0.00 in0.0 mm 0.00 in0.0 mm 0.00 in0.0 mm
09:34 AM 40.4°F4.7°C 30.7°F-0.7°C 68% 4.0 mph W6.4 kmh W 26.0 mph41.8 kmh 29.71 in1006.1 mb 0.00 in0.0 mm 0.00 in0.0 mm 0.00 in0.0 mm
09:33 AM 40.5°F4.7°C 30.4°F-0.9°C 67% 8.0 mph NW12.9 kmh NW 26.0 mph41.8 kmh 29.71 in1006.1 mb 0.00 in0.0 mm 0.00 in0.0 mm 0.00 in0.0 mm
09:30 AM 40.6°F4.8°C 30.5°F-0.8°C 67% 6.0 mph WSW9.7 kmh WSW 26.0 mph41.8 kmh 29.71 in1006.1 mb 0.00 in0.0 mm 0.00 in0.0 mm 0.00 in0.0 mm
09:28 AM 40.7°F4.8°C 30.6°F-0.8°C 67% 7.0 mph W11.3 kmh W 26.0 mph41.8 kmh 29.71 in1006.1 mb 0.00 in0.0 mm 0.00 in0.0 mm 0.00 in0.0 mm
09:25 AM 40.9°F4.9°C 30.4°F-0.9°C 66% 21.0 mph WNW33.8 kmh WNW 26.0 mph41.8 kmh 29.71 in1006.1 mb 0.00 in0.0 mm 0.00 in0.0 mm 0.00 in0.0 mm
09:24 AM 40.9°F4.9°C 30.4°F-0.9°C 66% 10.0 mph WNW16.1 kmh WNW 26.0 mph41.8 kmh 29.70 in1005.8 mb 0.00 in0.0 mm 0.00 in0.0 mm 0.00 in0.0 mm
09:23 AM 41.0°F5.0°C 30.5°F-0.8°C 66% 18.0 mph NW29.0 kmh NW 26.0 mph41.8 kmh 29.70 in1005.8 mb 0.00 in0.0 mm 0.00 in0.0 mm 0.00 in0.0 mm
09:20 AM 41.1°F5.1°C 30.3°F-0.9°C 65% 10.0 mph WNW16.1 kmh WNW 22.0 mph35.4 kmh 29.70 in1005.8 mb 0.00 in0.0 mm 0.00 in0.0 mm 0.00 in0.0 mm
09:19 AM 41.1°F5.1°C 30.3°F-0.9°C 65% 7.0 mph WNW11.3 kmh WNW 22.0 mph35.4 kmh 29.70 in1005.8 mb 0.00 in0.0 mm 0.00 in0.0 mm 0.00 in0.0 mm
09:18 AM 41.1°F5.1°C 30.3°F-0.9°C 65% 8.0 mph SW12.9 kmh SW 22.0 mph35.4 kmh 29.70 in1005.8 mb 0.00 in0.0 mm 0.00 in0.0 mm 0.00 in0.0 mm
09:15 AM 41.1°F5.1°C 30.3°F-0.9°C 65% 11.0 mph WNW17.7 kmh WNW 22.0 mph35.4 kmh 29.70 in1005.8 mb 0.00 in0.0 mm 0.00 in0.0 mm 0.00 in0.0 mm
09:14 AM 41.1°F5.1°C 30.3°F-0.9°C 65% 11.0 mph WNW17.7 kmh WNW 22.0 mph35.4 kmh 29.70 in1005.8 mb 0.00 in0.0 mm 0.00 in0.0 mm 0.00 in0.0 mm
09:13 AM 41.1°F5.1°C 30.6°F-0.8°C 66% 14.0 mph W22.5 kmh W 22.0 mph35.4 kmh 29.70 in1005.8 mb 0.00 in0.0 mm 0.00 in0.0 mm 0.00 in0.0 mm
09:10 AM 41.0°F5.0°C 30.5°F-0.8°C 66% 13.0 mph NW20.9 kmh NW 19.0 mph30.6 kmh 29.70 in1005.8 mb 0.00 in0.0 mm 0.00 in0.0 mm 0.00 in0.0 mm
09:09 AM 41.0°F5.0°C 30.5°F-0.8°C 66% 14.0 mph WSW22.5 kmh WSW 19.0 mph30.6 kmh 29.69 in1005.4 mb 0.00 in0.0 mm 0.00 in0.0 mm 0.00 in0.0 mm
09:08 AM 41.0°F5.0°C 30.5°F-0.8°C 66% 16.0 mph NW25.7 kmh NW 19.0 mph30.6 kmh 29.70 in1005.8 mb 0.00 in0.0 mm 0.00 in0.0 mm 0.00 in0.0 mm
09:05 AM 41.0°F5.0°C 30.5°F-0.8°C 66% 5.0 mph WNW8.0 kmh WNW 19.0 mph30.6 kmh 29.70 in1005.8 mb 0.00 in0.0 mm 0.00 in0.0 mm 0.00 in0.0 mm
09:04 AM 41.0°F5.0°C 30.5°F-0.8°C 66% 8.0 mph W12.9 kmh W 19.0 mph30.6 kmh 29.69 in1005.4 mb 0.00 in0.0 mm 0.00 in0.0 mm 0.00 in0.0 mm
09:03 AM 41.0°F5.0°C 30.5°F-0.8°C 66% 14.0 mph WNW22.5 kmh WNW 19.0 mph30.6 kmh 29.69 in1005.4 mb 0.00 in0.0 mm 0.00 in0.0 mm 0.00 in0.0 mm
09:00 AM 41.0°F5.0°C 30.9°F-0.6°C 67% 6.0 mph W9.7 kmh W 6.0 mph9.7 kmh 29.69 in1005.4 mb 0.00 in0.0 mm 0.00 in0.0 mm 0.00 in0.0 mm
08:59 AM 41.0°F5.0°C 30.9°F-0.6°C 67% 7.0 mph N11.3 kmh N 23.0 mph37.0 kmh 29.69 in1005.4 mb 0.00 in0.0 mm 0.00 in0.0 mm 0.00 in0.0 mm
08:58 AM 41.0°F5.0°C 30.9°F-0.6°C 67% 16.0 mph NW25.7 kmh NW 23.0 mph37.0 kmh 29.69 in1005.4 mb 0.00 in0.0 mm 0.00 in0.0 mm 0.00 in0.0 mm
08:55 AM 40.9°F4.9°C 30.8°F-0.7°C 67% 5.0 mph NW8.0 kmh NW 23.0 mph37.0 kmh 29.69 in1005.4 mb 0.00 in0.0 mm 0.00 in0.0 mm 0.00 in0.0 mm
08:54 AM 40.8°F4.9°C 30.7°F-0.7°C 67% 6.0 mph NW9.7 kmh NW 23.0 mph37.0 kmh 29.69 in1005.4 mb 0.00 in0.0 mm 0.00 in0.0 mm 0.00 in0.0 mm
08:53 AM 40.8°F4.9°C 30.7°F-0.7°C 67% 7.0 mph WSW11.3 kmh WSW 23.0 mph37.0 kmh 29.69 in1005.4 mb 0.00 in0.0 mm 0.00 in0.0 mm 0.00 in0.0 mm
08:50 AM 40.8°F4.9°C 30.7°F-0.7°C 67% 7.0 mph W11.3 kmh W 23.0 mph37.0 kmh 29.69 in1005.4 mb 0.00 in0.0 mm 0.00 in0.0 mm 0.00 in0.0 mm
08:49 AM 40.7°F4.8°C 30.6°F-0.8°C 67% 11.0 mph W17.7 kmh W 23.0 mph37.0 kmh 29.68 in1005.1 mb 0.00 in0.0 mm 0.00 in0.0 mm 0.00 in0.0 mm
08:48 AM 40.7°F4.8°C 31.0°F-0.6°C 68% 5.0 mph NW8.0 kmh NW 23.0 mph37.0 kmh 29.68 in1005.1 mb 0.00 in0.0 mm 0.00 in0.0 mm 0.00 in0.0 mm
08:44 AM 40.6°F4.8°C 30.5°F-0.8°C 67% 10.0 mph NW16.1 kmh NW 23.0 mph37.0 kmh 29.68 in1005.1 mb 0.00 in0.0 mm 0.00 in0.0 mm 0.00 in0.0 mm
08:43 AM 40.7°F4.8°C 31.0°F-0.6°C 68% 9.0 mph NW14.5 kmh NW 23.0 mph37.0 kmh 29.68 in1005.1 mb 0.00 in0.0 mm 0.00 in0.0 mm 0.00 in0.0 mm
08:40 AM 40.7°F4.8°C 30.6°F-0.8°C 67% 2.0 mph NW3.2 kmh NW 23.0 mph37.0 kmh 29.68 in1005.1 mb 0.00 in0.0 mm 0.00 in0.0 mm 0.00 in0.0 mm
08:39 AM 40.7°F4.8°C 31.0°F-0.6°C 68% 5.0 mph WNW8.0 kmh WNW 23.0 mph37.0 kmh 29.68 in1005.1 mb 0.00 in0.0 mm 0.00 in0.0 mm 0.00 in0.0 mm
08:38 AM 40.7°F4.8°C 30.6°F-0.8°C 67% 7.0 mph WNW11.3 kmh WNW 23.0 mph37.0 kmh 29.68 in1005.1 mb 0.00 in0.0 mm 0.00 in0.0 mm 0.00 in0.0 mm
08:35 AM 40.6°F4.8°C 30.5°F-0.8°C 67% 6.0 mph WNW9.7 kmh WNW 23.0 mph37.0 kmh 29.68 in1005.1 mb 0.00 in0.0 mm 0.00 in0.0 mm 0.00 in0.0 mm
08:34 AM 40.6°F4.8°C 30.5°F-0.8°C 67% 12.0 mph W19.3 kmh W 23.0 mph37.0 kmh 29.68 in1005.1 mb 0.00 in0.0 mm 0.00 in0.0 mm 0.00 in0.0 mm
08:33 AM 40.6°F4.8°C 30.5°F-0.8°C 67% 6.0 mph WSW9.7 kmh WSW 23.0 mph37.0 kmh 29.68 in1005.1 mb 0.00 in0.0 mm 0.00 in0.0 mm 0.00 in0.0 mm
08:30 AM 40.7°F4.8°C 30.6°F-0.8°C 67% 9.0 mph WSW14.5 kmh WSW 23.0 mph37.0 kmh 29.68 in1005.1 mb 0.00 in0.0 mm 0.00 in0.0 mm 0.00 in0.0 mm
08:29 AM 40.7°F4.8°C 31.0°F-0.6°C 68% 8.0 mph WNW12.9 kmh WNW 23.0 mph37.0 kmh 29.68 in1005.1 mb 0.00 in0.0 mm 0.00 in0.0 mm 0.00 in0.0 mm
08:28 AM 40.7°F4.8°C 31.0°F-0.6°C 68% 5.0 mph W8.0 kmh W 23.0 mph37.0 kmh 29.68 in1005.1 mb 0.00 in0.0 mm 0.00 in0.0 mm 0.00 in0.0 mm
08:25 AM 40.6°F4.8°C 30.5°F-0.8°C 67% 6.0 mph WSW9.7 kmh WSW 23.0 mph37.0 kmh 29.67 in1004.7 mb 0.00 in0.0 mm 0.00 in0.0 mm 0.00 in0.0 mm
08:24 AM 40.6°F4.8°C 30.5°F-0.8°C 67% 6.0 mph WSW9.7 kmh WSW 23.0 mph37.0 kmh 29.68 in1005.1 mb 0.00 in0.0 mm 0.00 in0.0 mm 0.00 in0.0 mm
08:23 AM 40.6°F4.8°C 30.5°F-0.8°C 67% 12.0 mph W19.3 kmh W 23.0 mph37.0 kmh 29.68 in1005.1 mb 0.00 in0.0 mm 0.00 in0.0 mm 0.00 in0.0 mm
08:20 AM 40.6°F4.8°C 30.5°F-0.8°C 67% 7.0 mph W11.3 kmh W 23.0 mph37.0 kmh 29.68 in1005.1 mb 0.00 in0.0 mm 0.00 in0.0 mm 0.00 in0.0 mm
08:19 AM 40.7°F4.8°C 30.6°F-0.8°C 67% 8.0 mph WSW12.9 kmh WSW 23.0 mph37.0 kmh 29.68 in1005.1 mb 0.00 in0.0 mm 0.00 in0.0 mm 0.00 in0.0 mm
08:18 AM 40.6°F4.8°C 30.5°F-0.8°C 67% 5.0 mph WSW8.0 kmh WSW 23.0 mph37.0 kmh 29.67 in1004.7 mb 0.00 in0.0 mm 0.00 in0.0 mm 0.00 in0.0 mm
08:15 AM 40.7°F4.8°C 30.6°F-0.8°C 67% 5.0 mph WNW8.0 kmh WNW 23.0 mph37.0 kmh 29.67 in1004.7 mb 0.00 in0.0 mm 0.00 in0.0 mm 0.00 in0.0 mm
08:14 AM 40.6°F4.8°C 30.5°F-0.8°C 67% 15.0 mph NNW24.1 kmh NNW 23.0 mph37.0 kmh 29.67 in1004.7 mb 0.00 in0.0 mm 0.00 in0.0 mm 0.00 in0.0 mm
08:13 AM 40.6°F4.8°C 30.5°F-0.8°C 67% 11.0 mph NW17.7 kmh NW 23.0 mph37.0 kmh 29.67 in1004.7 mb 0.00 in0.0 mm 0.00 in0.0 mm 0.00 in0.0 mm
08:10 AM 40.6°F4.8°C 30.5°F-0.8°C 67% 11.0 mph W17.7 kmh W 23.0 mph37.0 kmh 29.67 in1004.7 mb 0.00 in0.0 mm 0.00 in0.0 mm 0.00 in0.0 mm
08:09 AM 40.6°F4.8°C 30.5°F-0.8°C 67% 21.0 mph NW33.8 kmh NW 23.0 mph37.0 kmh 29.67 in1004.7 mb 0.00 in0.0 mm 0.00 in0.0 mm 0.00 in0.0 mm
08:08 AM 40.6°F4.8°C 30.5°F-0.8°C 67% 4.0 mph WNW6.4 kmh WNW 20.0 mph32.2 kmh 29.68 in1005.1 mb 0.00 in0.0 mm 0.00 in0.0 mm 0.00 in0.0 mm
08:05 AM 40.6°F4.8°C 30.5°F-0.8°C 67% 12.0 mph N19.3 kmh N 19.0 mph30.6 kmh 29.67 in1004.7 mb 0.00 in0.0 mm 0.00 in0.0 mm 0.00 in0.0 mm
08:04 AM 40.6°F4.8°C 30.9°F-0.6°C 68% 4.0 mph WNW6.4 kmh WNW 19.0 mph30.6 kmh 29.67 in1004.7 mb 0.00 in0.0 mm 0.00 in0.0 mm 0.00 in0.0 mm
08:00 AM 40.5°F4.7°C 30.8°F-0.7°C 68% 19.0 mph WNW30.6 kmh WNW 19.0 mph30.6 kmh 29.67 in1004.7 mb 0.00 in0.0 mm 0.00 in0.0 mm 0.00 in0.0 mm
07:59 AM 40.5°F4.7°C 30.8°F-0.7°C 68% 10.0 mph W16.1 kmh W 24.0 mph38.6 kmh 29.67 in1004.7 mb 0.00 in0.0 mm 0.00 in0.0 mm 0.00 in0.0 mm
07:58 AM 40.6°F4.8°C 30.9°F-0.6°C 68% 6.0 mph WSW9.7 kmh WSW 24.0 mph38.6 kmh 29.67 in1004.7 mb 0.00 in0.0 mm 0.00 in0.0 mm 0.00 in0.0 mm
07:55 AM 40.6°F4.8°C 30.9°F-0.6°C 68% 9.0 mph W14.5 kmh W 21.0 mph33.8 kmh 29.67 in1004.7 mb 0.00 in0.0 mm 0.00 in0.0 mm 0.00 in0.0 mm
07:54 AM 40.6°F4.8°C 30.9°F-0.6°C 68% 9.0 mph WSW14.5 kmh WSW 21.0 mph33.8 kmh 29.67 in1004.7 mb 0.00 in0.0 mm 0.00 in0.0 mm 0.00 in0.0 mm
07:53 AM 40.5°F4.7°C 30.8°F-0.7°C 68% 9.0 mph WNW14.5 kmh WNW 21.0 mph33.8 kmh 29.67 in1004.7 mb 0.00 in0.0 mm 0.00 in0.0 mm 0.00 in0.0 mm
07:50 AM 40.5°F4.7°C 30.8°F-0.7°C 68% 7.0 mph WNW11.3 kmh WNW 21.0 mph33.8 kmh 29.67 in1004.7 mb 0.00 in0.0 mm 0.00 in0.0 mm 0.00 in0.0 mm
07:49 AM 40.5°F4.7°C 30.8°F-0.7°C 68% 7.0 mph W11.3 kmh W 21.0 mph33.8 kmh 29.66 in1004.4 mb 0.00 in0.0 mm 0.00 in0.0 mm 0.00 in0.0 mm
07:48 AM 40.5°F4.7°C 30.8°F-0.7°C 68% 5.0 mph W8.0 kmh W 21.0 mph33.8 kmh 29.66 in1004.4 mb 0.00 in0.0 mm 0.00 in0.0 mm 0.00 in0.0 mm
07:45 AM 40.5°F4.7°C 31.1°F-0.5°C 69% 7.0 mph NW11.3 kmh NW 21.0 mph33.8 kmh 29.66 in1004.4 mb 0.00 in0.0 mm 0.00 in0.0 mm 0.00 in0.0 mm
07:44 AM 40.4°F4.7°C 30.7°F-0.7°C 68% 4.0 mph WNW6.4 kmh WNW 21.0 mph33.8 kmh 29.66 in1004.4 mb 0.00 in0.0 mm 0.00 in0.0 mm 0.00 in0.0 mm
07:43 AM 40.4°F4.7°C 30.7°F-0.7°C 68% 5.0 mph WNW8.0 kmh WNW 21.0 mph33.8 kmh 29.66 in1004.4 mb 0.00 in0.0 mm 0.00 in0.0 mm 0.00 in0.0 mm
07:40 AM 40.4°F4.7°C 31.1°F-0.5°C 69% 10.0 mph WNW16.1 kmh WNW 21.0 mph33.8 kmh 29.66 in1004.4 mb 0.00 in0.0 mm 0.00 in0.0 mm 0.00 in0.0 mm
07:39 AM 40.4°F4.7°C 31.1°F-0.5°C 69% 13.0 mph W20.9 kmh W 21.0 mph33.8 kmh 29.66 in1004.4 mb 0.00 in0.0 mm 0.00 in0.0 mm 0.00 in0.0 mm
07:38 AM 40.4°F4.7°C 31.1°F-0.5°C 69% 12.0 mph WNW19.3 kmh WNW 21.0 mph33.8 kmh 29.66 in1004.4 mb 0.00 in0.0 mm 0.00 in0.0 mm 0.00 in0.0 mm
07:35 AM 40.3°F4.6°C 31.0°F-0.6°C 69% 6.0 mph NW9.7 kmh NW 21.0 mph33.8 kmh 29.66 in1004.4 mb 0.00 in0.0 mm 0.00 in0.0 mm 0.00 in0.0 mm
07:34 AM 40.4°F4.7°C 31.1°F-0.5°C 69% 6.0 mph NW9.7 kmh NW 21.0 mph33.8 kmh 29.66 in1004.4 mb 0.00 in0.0 mm 0.00 in0.0 mm 0.00 in0.0 mm
07:33 AM 40.3°F4.6°C 31.0°F-0.6°C 69% 7.0 mph NW11.3 kmh NW 21.0 mph33.8 kmh 29.66 in1004.4 mb 0.00 in0.0 mm 0.00 in0.0 mm 0.00 in0.0 mm
07:30 AM 40.4°F4.7°C 31.1°F-0.5°C 69% 8.0 mph WNW12.9 kmh WNW 21.0 mph33.8 kmh 29.66 in1004.4 mb 0.00 in0.0 mm 0.00 in0.0 mm 0.00 in0.0 mm
07:29 AM 40.4°F4.7°C 31.1°F-0.5°C 69% 9.0 mph WNW14.5 kmh WNW 21.0 mph33.8 kmh 29.66 in1004.4 mb 0.00 in0.0 mm 0.00 in0.0 mm 0.00 in0.0 mm
07:28 AM 40.4°F4.7°C 31.1°F-0.5°C 69% 8.0 mph W12.9 kmh W 21.0 mph33.8 kmh 29.65 in1004.1 mb 0.00 in0.0 mm 0.00 in0.0 mm 0.00 in0.0 mm
07:25 AM 40.4°F4.7°C 31.1°F-0.5°C 69% 5.0 mph WNW8.0 kmh WNW 21.0 mph33.8 kmh 29.65 in1004.1 mb 0.00 in0.0 mm 0.00 in0.0 mm 0.00 in0.0 mm
07:24 AM 40.4°F4.7°C 31.1°F-0.5°C 69% 5.0 mph NW8.0 kmh NW 21.0 mph33.8 kmh 29.65 in1004.1 mb 0.00 in0.0 mm 0.00 in0.0 mm 0.00 in0.0 mm
07:23 AM 40.4°F4.7°C 31.1°F-0.5°C 69% 10.0 mph NW16.1 kmh NW 21.0 mph33.8 kmh 29.65 in1004.1 mb 0.00 in0.0 mm 0.00 in0.0 mm 0.00 in0.0 mm
07:20 AM 40.4°F4.7°C 31.1°F-0.5°C 69% 7.0 mph NW11.3 kmh NW 21.0 mph33.8 kmh 29.65 in1004.1 mb 0.00 in0.0 mm 0.00 in0.0 mm 0.00 in0.0 mm
07:19 AM 40.4°F4.7°C 31.1°F-0.5°C 69% 7.0 mph W11.3 kmh W 21.0 mph33.8 kmh 29.65 in1004.1 mb 0.00 in0.0 mm 0.00 in0.0 mm 0.00 in0.0 mm
07:18 AM 40.4°F4.7°C 31.1°F-0.5°C 69% 3.0 mph W4.8 kmh W 21.0 mph33.8 kmh 29.65 in1004.1 mb 0.00 in0.0 mm 0.00 in0.0 mm 0.00 in0.0 mm
07:15 AM 40.5°F4.7°C 31.5°F-0.3°C 70% 8.0 mph W12.9 kmh W 21.0 mph33.8 kmh 29.65 in1004.1 mb 0.00 in0.0 mm 0.00 in0.0 mm 0.00 in0.0 mm
07:14 AM 40.5°F4.7°C 31.5°F-0.3°C 70% 7.0 mph WNW11.3 kmh WNW 21.0 mph33.8 kmh 29.65 in1004.1 mb 0.00 in0.0 mm 0.00 in0.0 mm 0.00 in0.0 mm
07:13 AM 40.5°F4.7°C 31.5°F-0.3°C 70% 8.0 mph WNW12.9 kmh WNW 21.0 mph33.8 kmh 29.65 in1004.1 mb 0.00 in0.0 mm 0.00 in0.0 mm 0.00 in0.0 mm
07:10 AM 40.5°F4.7°C 31.5°F-0.3°C 70% 5.0 mph NNW8.0 kmh NNW 21.0 mph33.8 kmh 29.64 in1003.7 mb 0.00 in0.0 mm 0.00 in0.0 mm 0.00 in0.0 mm
07:09 AM 40.5°F4.7°C 31.5°F-0.3°C 70% 11.0 mph WNW17.7 kmh WNW 21.0 mph33.8 kmh 29.64 in1003.7 mb 0.00 in0.0 mm 0.00 in0.0 mm 0.00 in0.0 mm
07:08 AM 40.5°F4.7°C 31.5°F-0.3°C 70% 5.0 mph WNW8.0 kmh WNW 21.0 mph33.8 kmh 29.64 in1003.7 mb 0.00 in0.0 mm 0.00 in0.0 mm 0.00 in0.0 mm
07:05 AM 40.6°F4.8°C 31.6°F-0.2°C 70% 10.0 mph N16.1 kmh N 21.0 mph33.8 kmh 29.64 in1003.7 mb 0.00 in0.0 mm 0.00 in0.0 mm 0.00 in0.0 mm
07:04 AM 40.6°F4.8°C 31.6°F-0.2°C 70% 3.0 mph W4.8 kmh W 21.0 mph33.8 kmh 29.64 in1003.7 mb 0.00 in0.0 mm 0.00 in0.0 mm 0.00 in0.0 mm
07:03 AM 40.6°F4.8°C 31.6°F-0.2°C 70% 7.0 mph W11.3 kmh W 21.0 mph33.8 kmh 29.64 in1003.7 mb 0.00 in0.0 mm 0.00 in0.0 mm 0.00 in0.0 mm
07:00 AM 40.6°F4.8°C 32.0°F0.0°C 71% 12.0 mph NW19.3 kmh NW 15.0 mph24.1 kmh 29.65 in1004.1 mb 0.00 in0.0 mm 0.00 in0.0 mm 0.00 in0.0 mm
06:59 AM 40.6°F4.8°C 32.0°F0.0°C 71% 20.0 mph NNW32.2 kmh NNW 20.0 mph32.2 kmh 29.64 in1003.7 mb 0.00 in0.0 mm 0.00 in0.0 mm 0.00 in0.0 mm
06:58 AM 40.6°F4.8°C 32.0°F0.0°C 71% 4.0 mph NW6.4 kmh NW 18.0 mph29.0 kmh 29.64 in1003.7 mb 0.00 in0.0 mm 0.00 in0.0 mm 0.00 in0.0 mm
06:55 AM 40.6°F4.8°C 32.3°F0.2°C 72% 10.0 mph WSW16.1 kmh WSW 18.0 mph29.0 kmh 29.64 in1003.7 mb 0.00 in0.0 mm 0.00 in0.0 mm 0.00 in0.0 mm
06:54 AM 40.6°F4.8°C 32.3°F0.2°C 72% 10.0 mph WSW16.1 kmh WSW 18.0 mph29.0 kmh 29.64 in1003.7 mb 0.00 in0.0 mm 0.00 in0.0 mm 0.00 in0.0 mm
06:53 AM 40.7°F4.8°C 32.4°F0.2°C 72% 7.0 mph WNW11.3 kmh WNW 18.0 mph29.0 kmh 29.63 in1003.4 mb 0.00 in0.0 mm 0.00 in0.0 mm 0.00 in0.0 mm
06:50 AM 40.7°F4.8°C 32.7°F0.4°C 73% 4.0 mph W6.4 kmh W 17.0 mph27.4 kmh 29.63 in1003.4 mb 0.00 in0.0 mm 0.00 in0.0 mm 0.00 in0.0 mm
06:49 AM 40.6°F4.8°C 32.6°F0.3°C 73% 6.0 mph W9.7 kmh W 17.0 mph27.4 kmh 29.63 in1003.4 mb 0.00 in0.0 mm 0.00 in0.0 mm 0.00 in0.0 mm
06:48 AM 40.7°F4.8°C 32.7°F0.4°C 73% 4.0 mph WSW6.4 kmh WSW 17.0 mph27.4 kmh 29.63 in1003.4 mb 0.00 in0.0 mm 0.00 in0.0 mm 0.00 in0.0 mm
06:45 AM 40.7°F4.8°C 32.7°F0.4°C 73% 14.0 mph W22.5 kmh W 17.0 mph27.4 kmh 29.63 in1003.4 mb 0.00 in0.0 mm 0.00 in0.0 mm 0.00 in0.0 mm
06:44 AM 40.7°F4.8°C 32.7°F0.4°C 73% 8.0 mph W12.9 kmh W 17.0 mph27.4 kmh 29.63 in1003.4 mb 0.00 in0.0 mm 0.00 in0.0 mm 0.00 in0.0 mm
06:43 AM 40.7°F4.8°C 32.7°F0.4°C 73% 3.0 mph WSW4.8 kmh WSW 17.0 mph27.4 kmh 29.63 in1003.4 mb 0.00 in0.0 mm 0.00 in0.0 mm 0.00 in0.0 mm
06:40 AM 40.7°F4.8°C 32.7°F0.4°C 73% 6.0 mph W9.7 kmh W 17.0 mph27.4 kmh 29.63 in1003.4 mb 0.00 in0.0 mm 0.00 in0.0 mm 0.00 in0.0 mm
06:39 AM 40.7°F4.8°C 32.7°F0.4°C 73% 7.0 mph W11.3 kmh W 17.0 mph27.4 kmh 29.63 in1003.4 mb 0.00 in0.0 mm 0.00 in0.0 mm 0.00 in0.0 mm
06:38 AM 40.7°F4.8°C 32.7°F0.4°C 73% 6.0 mph WSW9.7 kmh WSW 17.0 mph27.4 kmh 29.63 in1003.4 mb 0.00 in0.0 mm 0.00 in0.0 mm 0.00 in0.0 mm
06:35 AM 40.7°F4.8°C 33.1°F0.6°C 74% 1.0 mph W1.6 kmh W 16.0 mph25.7 kmh 29.63 in1003.4 mb 0.00 in0.0 mm 0.00 in0.0 mm 0.00 in0.0 mm
06:34 AM 40.7°F4.8°C 33.1°F0.6°C 74% 8.0 mph W12.9 kmh W 16.0 mph25.7 kmh 29.63 in1003.4 mb 0.00 in0.0 mm 0.00 in0.0 mm 0.00 in0.0 mm
06:33 AM 40.7°F4.8°C 33.1°F0.6°C 74% 3.0 mph W4.8 kmh W 16.0 mph25.7 kmh 29.63 in1003.4 mb 0.00 in0.0 mm 0.00 in0.0 mm 0.00 in0.0 mm
06:30 AM 40.7°F4.8°C 33.1°F0.6°C 74% 3.0 mph WSW4.8 kmh WSW 16.0 mph25.7 kmh 29.63 in1003.4 mb 0.00 in0.0 mm 0.00 in0.0 mm 0.00 in0.0 mm
06:29 AM 40.7°F4.8°C 33.1°F0.6°C 74% 7.0 mph WNW11.3 kmh WNW 16.0 mph25.7 kmh 29.62 in1003.0 mb 0.00 in0.0 mm 0.00 in0.0 mm 0.00 in0.0 mm
06:28 AM 40.7°F4.8°C 33.4°F0.8°C 75% 6.0 mph NW9.7 kmh NW 16.0 mph25.7 kmh 29.62 in1003.0 mb 0.00 in0.0 mm 0.00 in0.0 mm 0.00 in0.0 mm
06:25 AM 40.7°F4.8°C 33.4°F0.8°C 75% 4.0 mph WNW6.4 kmh WNW 14.0 mph22.5 kmh 29.62 in1003.0 mb 0.00 in0.0 mm 0.00 in0.0 mm 0.00 in0.0 mm
06:24 AM 40.7°F4.8°C 33.4°F0.8°C 75% 5.0 mph WNW8.0 kmh WNW 14.0 mph22.5 kmh 29.62 in1003.0 mb 0.00 in0.0 mm 0.00 in0.0 mm 0.00 in0.0 mm
06:23 AM 40.7°F4.8°C 33.4°F0.8°C 75% 4.0 mph WSW6.4 kmh WSW 14.0 mph22.5 kmh 29.62 in1003.0 mb 0.00 in0.0 mm 0.00 in0.0 mm 0.00 in0.0 mm
06:20 AM 40.8°F4.9°C 33.5°F0.8°C 75% 10.0 mph W16.1 kmh W 13.0 mph20.9 kmh 29.62 in1003.0 mb 0.00 in0.0 mm 0.00 in0.0 mm 0.00 in0.0 mm
06:19 AM 40.8°F4.9°C 33.8°F1.0°C 76% 9.0 mph WNW14.5 kmh WNW 13.0 mph20.9 kmh 29.62 in1003.0 mb 0.00 in0.0 mm 0.00 in0.0 mm 0.00 in0.0 mm
06:18 AM 40.8°F4.9°C 33.8°F1.0°C 76% 5.0 mph W8.0 kmh W 13.0 mph20.9 kmh 29.62 in1003.0 mb 0.00 in0.0 mm 0.00 in0.0 mm 0.00 in0.0 mm
06:15 AM 40.8°F4.9°C 33.8°F1.0°C 76% 7.0 mph NW11.3 kmh NW 13.0 mph20.9 kmh 29.62 in1003.0 mb 0.00 in0.0 mm 0.00 in0.0 mm 0.00 in0.0 mm
06:14 AM 40.8°F4.9°C 33.8°F1.0°C 76% 11.0 mph NW17.7 kmh NW 13.0 mph20.9 kmh 29.62 in1003.0 mb 0.00 in0.0 mm 0.00 in0.0 mm 0.00 in0.0 mm
06:13 AM 40.9°F4.9°C 33.9°F1.1°C 76% 6.0 mph W9.7 kmh W 13.0 mph20.9 kmh 29.62 in1003.0 mb 0.00 in0.0 mm 0.00 in0.0 mm 0.00 in0.0 mm
06:10 AM 40.9°F4.9°C 34.3°F1.3°C 77% 7.0 mph W11.3 kmh W 13.0 mph20.9 kmh 29.62 in1003.0 mb 0.00 in0.0 mm 0.00 in0.0 mm 0.00 in0.0 mm
06:09 AM 40.8°F4.9°C 33.8°F1.0°C 76% 6.0 mph W9.7 kmh W 13.0 mph20.9 kmh 29.62 in1003.0 mb 0.00 in0.0 mm 0.00 in0.0 mm 0.00 in0.0 mm
06:08 AM 40.9°F4.9°C 34.3°F1.3°C 77% 5.0 mph W8.0 kmh W 13.0 mph20.9 kmh 29.61 in1002.7 mb 0.00 in0.0 mm 0.00 in0.0 mm 0.00 in0.0 mm
06:05 AM 40.9°F4.9°C 34.3°F1.3°C 77% 4.0 mph SW6.4 kmh SW 13.0 mph20.9 kmh 29.61 in1002.7 mb 0.00 in0.0 mm 0.00 in0.0 mm 0.00 in0.0 mm
06:04 AM 40.9°F4.9°C 34.3°F1.3°C 77% 12.0 mph WSW19.3 kmh WSW 12.0 mph19.3 kmh 29.61 in1002.7 mb 0.00 in0.0 mm 0.00 in0.0 mm 0.00 in0.0 mm
06:03 AM 40.9°F4.9°C 34.3°F1.3°C 77% 7.0 mph NW11.3 kmh NW 10.0 mph16.1 kmh 29.61 in1002.7 mb 0.00 in0.0 mm 0.00 in0.0 mm 0.00 in0.0 mm
06:00 AM 40.9°F4.9°C 34.3°F1.3°C 77% 1.0 mph W1.6 kmh W 1.0 mph1.6 kmh 29.61 in1002.7 mb 0.00 in0.0 mm 0.00 in0.0 mm 0.00 in0.0 mm
05:59 AM 40.9°F4.9°C 34.3°F1.3°C 77% 8.0 mph W12.9 kmh W 21.0 mph33.8 kmh 29.61 in1002.7 mb 0.00 in0.0 mm 0.00 in0.0 mm 0.00 in0.0 mm
05:58 AM 40.9°F4.9°C 34.3°F1.3°C 77% 9.0 mph WNW14.5 kmh WNW 21.0 mph33.8 kmh 29.61 in1002.7 mb 0.00 in0.0 mm 0.00 in0.0 mm 0.00 in0.0 mm
05:55 AM 41.0°F5.0°C 34.7°F1.5°C 78% 6.0 mph W9.7 kmh W 21.0 mph33.8 kmh 29.61 in1002.7 mb 0.00 in0.0 mm 0.00 in0.0 mm 0.00 in0.0 mm
05:54 AM 40.9°F4.9°C 34.6°F1.4°C 78% 7.0 mph WNW11.3 kmh WNW 21.0 mph33.8 kmh 29.61 in1002.7 mb 0.00 in0.0 mm 0.00 in0.0 mm 0.00 in0.0 mm
05:53 AM 40.9°F4.9°C 34.6°F1.4°C 78% 6.0 mph WSW9.7 kmh WSW 21.0 mph33.8 kmh 29.61 in1002.7 mb 0.00 in0.0 mm 0.00 in0.0 mm 0.00 in0.0 mm
05:50 AM 40.9°F4.9°C 34.6°F1.4°C 78% 7.0 mph W11.3 kmh W 21.0 mph33.8 kmh 29.61 in1002.7 mb 0.00 in0.0 mm 0.00 in0.0 mm 0.00 in0.0 mm
05:49 AM 40.9°F4.9°C 34.9°F1.6°C 79% 10.0 mph WSW16.1 kmh WSW 21.0 mph33.8 kmh 29.61 in1002.7 mb 0.00 in0.0 mm 0.00 in0.0 mm 0.00 in0.0 mm
05:48 AM 40.9°F4.9°C 34.9°F1.6°C 79% 12.0 mph WSW19.3 kmh WSW 21.0 mph33.8 kmh 29.61 in1002.7 mb 0.00 in0.0 mm 0.00 in0.0 mm 0.00 in0.0 mm
05:45 AM 40.9°F4.9°C 35.2°F1.8°C 80% 15.0 mph W24.1 kmh W 19.0 mph30.6 kmh 29.61 in1002.7 mb 0.00 in0.0 mm 0.00 in0.0 mm 0.00 in0.0 mm
05:44 AM 40.8°F4.9°C 35.1°F1.7°C 80% 10.0 mph WSW16.1 kmh WSW 19.0 mph30.6 kmh 29.61 in1002.7 mb 0.00 in0.0 mm 0.00 in0.0 mm 0.00 in0.0 mm
05:43 AM 40.9°F4.9°C 35.2°F1.8°C 80% 10.0 mph W16.1 kmh W 19.0 mph30.6 kmh 29.60 in1002.4 mb 0.00 in0.0 mm 0.00 in0.0 mm 0.00 in0.0 mm
05:40 AM 40.8°F4.9°C 35.4°F1.9°C 81% 7.0 mph W11.3 kmh W 19.0 mph30.6 kmh 29.60 in1002.4 mb 0.00 in0.0 mm 0.00 in0.0 mm 0.00 in0.0 mm
05:39 AM 40.9°F4.9°C 35.5°F1.9°C 81% 9.0 mph NW14.5 kmh NW 19.0 mph30.6 kmh 29.60 in1002.4 mb 0.00 in0.0 mm 0.00 in0.0 mm 0.00 in0.0 mm
05:38 AM 40.9°F4.9°C 35.5°F1.9°C 81% 6.0 mph WSW9.7 kmh WSW 19.0 mph30.6 kmh 29.60 in1002.4 mb 0.00 in0.0 mm 0.00 in0.0 mm 0.00 in0.0 mm
05:35 AM 40.8°F4.9°C 35.7°F2.1°C 82% 3.0 mph WSW4.8 kmh WSW 19.0 mph30.6 kmh 29.60 in1002.4 mb 0.00 in0.0 mm 0.00 in0.0 mm 0.00 in0.0 mm
05:34 AM 40.8°F4.9°C 35.7°F2.1°C 82% 10.0 mph WSW16.1 kmh WSW 19.0 mph30.6 kmh 29.60 in1002.4 mb 0.00 in0.0 mm 0.00 in0.0 mm 0.00 in0.0 mm
05:33 AM 40.8°F4.9°C 35.7°F2.1°C 82% 4.0 mph WSW6.4 kmh WSW 19.0 mph30.6 kmh 29.60 in1002.4 mb 0.00 in0.0 mm 0.00 in0.0 mm 0.00 in0.0 mm
05:30 AM 40.8°F4.9°C 36.1°F2.3°C 83% 8.0 mph W12.9 kmh W 17.0 mph27.4 kmh 29.60 in1002.4 mb 0.00 in0.0 mm 0.00 in0.0 mm 0.00 in0.0 mm
05:28 AM 40.7°F4.8°C 36.0°F2.2°C 83% 7.0 mph WNW11.3 kmh WNW 17.0 mph27.4 kmh 29.60 in1002.4 mb 0.00 in0.0 mm 0.00 in0.0 mm 0.00 in0.0 mm
05:25 AM 40.7°F4.8°C 36.3°F2.4°C 84% 6.0 mph WNW9.7 kmh WNW 17.0 mph27.4 kmh 29.59 in1002.0 mb 0.00 in0.0 mm 0.00 in0.0 mm 0.00 in0.0 mm
05:24 AM 40.6°F4.8°C 36.2°F2.3°C 84% 14.0 mph WNW22.5 kmh WNW 17.0 mph27.4 kmh 29.59 in1002.0 mb 0.00 in0.0 mm 0.00 in0.0 mm 0.00 in0.0 mm
05:23 AM 40.6°F4.8°C 36.2°F2.3°C 84% 2.0 mph WSW3.2 kmh WSW 17.0 mph27.4 kmh 29.59 in1002.0 mb 0.00 in0.0 mm 0.00 in0.0 mm 0.00 in0.0 mm
05:20 AM 40.5°F4.7°C 36.4°F2.4°C 85% 5.0 mph WSW8.0 kmh WSW 17.0 mph27.4 kmh 29.59 in1002.0 mb 0.00 in0.0 mm 0.00 in0.0 mm 0.00 in0.0 mm
05:19 AM 40.5°F4.7°C 36.4°F2.4°C 85% 6.0 mph WSW9.7 kmh WSW 17.0 mph27.4 kmh 29.59 in1002.0 mb 0.00 in0.0 mm 0.00 in0.0 mm 0.00 in0.0 mm
05:18 AM 40.4°F4.7°C 36.3°F2.4°C 85% 8.0 mph SW12.9 kmh SW 17.0 mph27.4 kmh 29.59 in1002.0 mb 0.00 in0.0 mm 0.00 in0.0 mm 0.00 in0.0 mm
05:15 AM 40.3°F4.6°C 36.2°F2.3°C 85% 4.0 mph WSW6.4 kmh WSW 17.0 mph27.4 kmh 29.59 in1002.0 mb 0.00 in0.0 mm 0.00 in0.0 mm 0.00 in0.0 mm
05:14 AM 40.3°F4.6°C 36.5°F2.5°C 86% 3.0 mph WSW4.8 kmh WSW 17.0 mph27.4 kmh 29.59 in1002.0 mb 0.00 in0.0 mm 0.00 in0.0 mm 0.00 in0.0 mm
05:13 AM 40.3°F4.6°C 36.5°F2.5°C 86% 6.0 mph WSW9.7 kmh WSW 17.0 mph27.4 kmh 29.59 in1002.0 mb 0.00 in0.0 mm 0.00 in0.0 mm 0.00 in0.0 mm
05:10 AM 40.2°F4.6°C 36.4°F2.4°C 86% 1.0 mph WSW1.6 kmh WSW 14.0 mph22.5 kmh 29.59 in1002.0 mb 0.00 in0.0 mm 0.00 in0.0 mm 0.00 in0.0 mm
05:09 AM 40.2°F4.6°C 36.4°F2.4°C 86% 3.0 mph WSW4.8 kmh WSW 14.0 mph22.5 kmh 29.59 in1002.0 mb 0.00 in0.0 mm 0.00 in0.0 mm 0.00 in0.0 mm
05:08 AM 40.2°F4.6°C 36.4°F2.4°C 86% 5.0 mph WSW8.0 kmh WSW 14.0 mph22.5 kmh 29.59 in1002.0 mb 0.00 in0.0 mm 0.00 in0.0 mm 0.00 in0.0 mm
05:05 AM 40.1°F4.5°C 36.3°F2.4°C 86% 5.0 mph WSW8.0 kmh WSW 13.0 mph20.9 kmh 29.59 in1002.0 mb 0.00 in0.0 mm 0.00 in0.0 mm 0.00 in0.0 mm
05:04 AM 40.1°F4.5°C 36.3°F2.4°C 86% Calm Calm 13.0 mph20.9 kmh 29.59 in1002.0 mb 0.00 in0.0 mm 0.00 in0.0 mm 0.00 in0.0 mm
05:03 AM 40.1°F4.5°C 36.6°F2.6°C 87% 7.0 mph W11.3 kmh W 13.0 mph20.9 kmh 29.59 in1002.0 mb 0.00 in0.0 mm 0.00 in0.0 mm 0.00 in0.0 mm
05:00 AM 40.0°F4.4°C 36.5°F2.5°C 87% 6.0 mph WSW9.7 kmh WSW 8.0 mph12.9 kmh 29.59 in1002.0 mb 0.00 in0.0 mm 0.00 in0.0 mm 0.00 in0.0 mm
04:59 AM 40.0°F4.4°C 36.5°F2.5°C 87% 1.0 mph WSW1.6 kmh WSW 18.0 mph29.0 kmh 29.59 in1002.0 mb 0.00 in0.0 mm 0.00 in0.0 mm 0.00 in0.0 mm
04:58 AM 40.0°F4.4°C 36.5°F2.5°C 87% 1.0 mph WSW1.6 kmh WSW 18.0 mph29.0 kmh 29.59 in1002.0 mb 0.00 in0.0 mm 0.00 in0.0 mm 0.00 in0.0 mm
04:55 AM 39.9°F4.4°C 36.4°F2.4°C 87% 13.0 mph SSW20.9 kmh SSW 18.0 mph29.0 kmh 29.59 in1002.0 mb 0.00 in0.0 mm 0.00 in0.0 mm 0.00 in0.0 mm
04:54 AM 39.9°F4.4°C 36.4°F2.4°C 87% 2.0 mph SW3.2 kmh SW 18.0 mph29.0 kmh 29.59 in1002.0 mb 0.00 in0.0 mm 0.00 in0.0 mm 0.00 in0.0 mm
04:53 AM 39.9°F4.4°C 36.4°F2.4°C 87% 4.0 mph SW6.4 kmh SW 18.0 mph29.0 kmh 29.59 in1002.0 mb 0.00 in0.0 mm 0.00 in0.0 mm 0.00 in0.0 mm
04:50 AM 39.9°F4.4°C 36.4°F2.4°C 87% 4.0 mph SW6.4 kmh SW 18.0 mph29.0 kmh 29.59 in1002.0 mb 0.00 in0.0 mm 0.00 in0.0 mm 0.00 in0.0 mm
04:49 AM 39.8°F4.3°C 36.3°F2.4°C 87% 11.0 mph SW17.7 kmh SW 18.0 mph29.0 kmh 29.59 in1002.0 mb 0.00 in0.0 mm 0.00 in0.0 mm 0.00 in0.0 mm
04:48 AM 39.8°F4.3°C 36.3°F2.4°C 87% 7.0 mph SW11.3 kmh SW 18.0 mph29.0 kmh 29.59 in1002.0 mb 0.00 in0.0 mm 0.00 in0.0 mm 0.00 in0.0 mm
04:45 AM 39.8°F4.3°C 36.3°F2.4°C 87% 11.0 mph SW17.7 kmh SW 18.0 mph29.0 kmh 29.59 in1002.0 mb 0.00 in0.0 mm 0.00 in0.0 mm 0.00 in0.0 mm
04:44 AM 39.8°F4.3°C 36.3°F2.4°C 87% 6.0 mph SW9.7 kmh SW 18.0 mph29.0 kmh 29.59 in1002.0 mb 0.00 in0.0 mm 0.00 in0.0 mm 0.00 in0.0 mm
04:43 AM 39.8°F4.3°C 36.3°F2.4°C 87% 6.0 mph SW9.7 kmh SW 18.0 mph29.0 kmh 29.59 in1002.0 mb 0.00 in0.0 mm 0.00 in0.0 mm 0.00 in0.0 mm
04:40 AM 39.7°F4.3°C 36.4°F2.4°C 88% 12.0 mph WSW19.3 kmh WSW 18.0 mph29.0 kmh 29.59 in1002.0 mb 0.00 in0.0 mm 0.00 in0.0 mm 0.00 in0.0 mm
04:39 AM 39.7°F4.3°C 36.4°F2.4°C 88% 13.0 mph SW20.9 kmh SW 18.0 mph29.0 kmh 29.59 in1002.0 mb 0.00 in0.0 mm 0.00 in0.0 mm 0.00 in0.0 mm
04:38 AM 39.6°F4.2°C 36.4°F2.4°C 88% 10.0 mph SW16.1 kmh SW 18.0 mph29.0 kmh 29.59 in1002.0 mb 0.00 in0.0 mm 0.00 in0.0 mm 0.00 in0.0 mm
04:35 AM 39.4°F4.1°C 36.2°F2.3°C 88% 10.0 mph SSW16.1 kmh SSW 18.0 mph29.0 kmh 29.59 in1002.0 mb 0.00 in0.0 mm 0.00 in0.0 mm 0.00 in0.0 mm
04:34 AM 39.4°F4.1°C 36.2°F2.3°C 88% 10.0 mph SW16.1 kmh SW 18.0 mph29.0 kmh 29.59 in1002.0 mb 0.00 in0.0 mm 0.00 in0.0 mm 0.00 in0.0 mm
04:33 AM 39.4°F4.1°C 36.4°F2.4°C 89% 2.0 mph SW3.2 kmh SW 18.0 mph29.0 kmh 29.59 in1002.0 mb 0.00 in0.0 mm 0.00 in0.0 mm 0.00 in0.0 mm
04:30 AM 39.3°F4.1°C 36.3°F2.4°C 89% 5.0 mph SW8.0 kmh SW 16.0 mph25.7 kmh 29.59 in1002.0 mb 0.00 in0.0 mm 0.00 in0.0 mm 0.00 in0.0 mm
04:29 AM 39.2°F4.0°C 36.2°F2.3°C 89% 9.0 mph SW14.5 kmh SW 16.0 mph25.7 kmh 29.59 in1002.0 mb 0.00 in0.0 mm 0.00 in0.0 mm 0.00 in0.0 mm
04:28 AM 39.2°F4.0°C 36.2°F2.3°C 89% 8.0 mph SSW12.9 kmh SSW 16.0 mph25.7 kmh 29.59 in1002.0 mb 0.00 in0.0 mm 0.00 in0.0 mm 0.00 in0.0 mm
04:25 AM 39.0°F3.9°C 36.0°F2.2°C 89% 8.0 mph WSW12.9 kmh WSW 16.0 mph25.7 kmh 29.59 in1002.0 mb 0.00 in0.0 mm 0.00 in0.0 mm 0.00 in0.0 mm
04:24 AM 39.0°F3.9°C 36.0°F2.2°C 89% 5.0 mph SW8.0 kmh SW 16.0 mph25.7 kmh 29.58 in1001.7 mb 0.00 in0.0 mm 0.00 in0.0 mm 0.00 in0.0 mm
04:23 AM 38.9°F3.8°C 35.9°F2.2°C 89% 2.0 mph SW3.2 kmh SW 16.0 mph25.7 kmh 29.59 in1002.0 mb 0.00 in0.0 mm 0.00 in0.0 mm 0.00 in0.0 mm
04:20 AM 38.7°F3.7°C 36.0°F2.2°C 90% 6.0 mph WSW9.7 kmh WSW 15.0 mph24.1 kmh 29.59 in1002.0 mb 0.00 in0.0 mm 0.00 in0.0 mm 0.00 in0.0 mm
04:19 AM 38.7°F3.7°C 36.0°F2.2°C 90% 9.0 mph WSW14.5 kmh WSW 15.0 mph24.1 kmh 29.59 in1002.0 mb 0.00 in0.0 mm 0.00 in0.0 mm 0.00 in0.0 mm
04:18 AM 38.6°F3.7°C 35.9°F2.2°C 90% 4.0 mph SW6.4 kmh SW 15.0 mph24.1 kmh 29.59 in1002.0 mb 0.00 in0.0 mm 0.00 in0.0 mm 0.00 in0.0 mm
04:15 AM 38.5°F3.6°C 35.8°F2.1°C 90% 7.0 mph SSW11.3 kmh SSW 15.0 mph24.1 kmh 29.59 in1002.0 mb 0.00 in0.0 mm 0.00 in0.0 mm 0.00 in0.0 mm
04:14 AM 38.4°F3.6°C 35.7°F2.1°C 90% 3.0 mph SW4.8 kmh SW 15.0 mph24.1 kmh 29.59 in1002.0 mb 0.00 in0.0 mm 0.00 in0.0 mm 0.00 in0.0 mm
04:13 AM 38.4°F3.6°C 35.7°F2.1°C 90% 3.0 mph WSW4.8 kmh WSW 15.0 mph24.1 kmh 29.59 in1002.0 mb 0.00 in0.0 mm 0.00 in0.0 mm 0.00 in0.0 mm
04:10 AM 38.3°F3.5°C 35.6°F2.0°C 90% 15.0 mph WSW24.1 kmh WSW 15.0 mph24.1 kmh 29.60 in1002.4 mb 0.00 in0.0 mm 0.00 in0.0 mm 0.00 in0.0 mm
04:09 AM 38.3°F3.5°C 35.6°F2.0°C 90% 7.0 mph WSW11.3 kmh WSW 12.0 mph19.3 kmh 29.60 in1002.4 mb 0.00 in0.0 mm 0.00 in0.0 mm 0.00 in0.0 mm
04:08 AM 38.3°F3.5°C 35.6°F2.0°C 90% 5.0 mph SW8.0 kmh SW 12.0 mph19.3 kmh 29.60 in1002.4 mb 0.00 in0.0 mm 0.00 in0.0 mm 0.00 in0.0 mm
04:05 AM 38.2°F3.4°C 35.5°F1.9°C 90% 5.0 mph SW8.0 kmh SW 12.0 mph19.3 kmh 29.60 in1002.4 mb 0.00 in0.0 mm 0.00 in0.0 mm 0.00 in0.0 mm
04:04 AM 38.1°F3.4°C 35.4°F1.9°C 90% 5.0 mph SW8.0 kmh SW 12.0 mph19.3 kmh 29.60 in1002.4 mb 0.00 in0.0 mm 0.00 in0.0 mm 0.00 in0.0 mm
04:03 AM 38.1°F3.4°C 35.4°F1.9°C 90% 2.0 mph SW3.2 kmh SW 12.0 mph19.3 kmh 29.60 in1002.4 mb 0.00 in0.0 mm 0.00 in0.0 mm 0.00 in0.0 mm
04:00 AM 37.9°F3.3°C 35.2°F1.8°C 90% 3.0 mph SW4.8 kmh SW 3.0 mph4.8 kmh 29.60 in1002.4 mb 0.00 in0.0 mm 0.00 in0.0 mm 0.00 in0.0 mm
03:59 AM 37.9°F3.3°C 35.2°F1.8°C 90% 3.0 mph SW4.8 kmh SW 14.0 mph22.5 kmh 29.60 in1002.4 mb 0.00 in0.0 mm 0.00 in0.0 mm 0.00 in0.0 mm
03:58 AM 37.9°F3.3°C 35.2°F1.8°C 90% 2.0 mph SW3.2 kmh SW 14.0 mph22.5 kmh 29.60 in1002.4 mb 0.00 in0.0 mm 0.00 in0.0 mm 0.00 in0.0 mm
03:55 AM 37.8°F3.2°C 35.1°F1.7°C 90% 5.0 mph SW8.0 kmh SW 14.0 mph22.5 kmh 29.60 in1002.4 mb 0.00 in0.0 mm 0.00 in0.0 mm 0.00 in0.0 mm
03:54 AM 37.8°F3.2°C 35.1°F1.7°C 90% 9.0 mph SW14.5 kmh SW 14.0 mph22.5 kmh 29.60 in1002.4 mb 0.00 in0.0 mm 0.00 in0.0 mm 0.00 in0.0 mm
03:53 AM 37.7°F3.2°C 35.0°F1.7°C 90% 4.0 mph SSW6.4 kmh SSW 14.0 mph22.5 kmh 29.60 in1002.4 mb 0.00 in0.0 mm 0.00 in0.0 mm 0.00 in0.0 mm
03:50 AM 37.6°F3.1°C 34.9°F1.6°C 90% 3.0 mph S4.8 kmh S 14.0 mph22.5 kmh 29.60 in1002.4 mb 0.00 in0.0 mm 0.00 in0.0 mm 0.00 in0.0 mm
03:49 AM 37.6°F3.1°C 34.9°F1.6°C 90% 6.0 mph S9.7 kmh S 14.0 mph22.5 kmh 29.60 in1002.4 mb 0.00 in0.0 mm 0.00 in0.0 mm 0.00 in0.0 mm
03:48 AM 37.5°F3.1°C 34.8°F1.6°C 90% 3.0 mph S4.8 kmh S 14.0 mph22.5 kmh 29.60 in1002.4 mb 0.00 in0.0 mm 0.00 in0.0 mm 0.00 in0.0 mm
03:45 AM 37.4°F3.0°C 34.7°F1.5°C 90% 4.0 mph S6.4 kmh S 14.0 mph22.5 kmh 29.60 in1002.4 mb 0.00 in0.0 mm 0.00 in0.0 mm 0.00 in0.0 mm
03:44 AM 37.4°F3.0°C 34.7°F1.5°C 90% 6.0 mph SSW9.7 kmh SSW 14.0 mph22.5 kmh 29.61 in1002.7 mb 0.00 in0.0 mm 0.00 in0.0 mm 0.00 in0.0 mm
03:43 AM 37.4°F3.0°C 34.7°F1.5°C 90% 6.0 mph SSW9.7 kmh SSW 14.0 mph22.5 kmh 29.61 in1002.7 mb 0.00 in0.0 mm 0.00 in0.0 mm 0.00 in0.0 mm
03:40 AM 37.3°F2.9°C 34.6°F1.4°C 90% 6.0 mph SSW9.7 kmh SSW 14.0 mph22.5 kmh 29.61 in1002.7 mb 0.00 in0.0 mm 0.00 in0.0 mm 0.00 in0.0 mm
03:39 AM 37.3°F2.9°C 34.6°F1.4°C 90% 9.0 mph SSW14.5 kmh SSW 14.0 mph22.5 kmh 29.61 in1002.7 mb 0.00 in0.0 mm 0.00 in0.0 mm 0.00 in0.0 mm
03:38 AM 37.2°F2.9°C 34.5°F1.4°C 90% 14.0 mph SSW22.5 kmh SSW 14.0 mph22.5 kmh 29.61 in1002.7 mb 0.00 in0.0 mm 0.00 in0.0 mm 0.00 in0.0 mm
03:35 AM 37.2°F2.9°C 34.3°F1.3°C 89% 5.0 mph SSW8.0 kmh SSW 14.0 mph22.5 kmh 29.61 in1002.7 mb 0.00 in0.0 mm 0.00 in0.0 mm 0.00 in0.0 mm
03:34 AM 37.2°F2.9°C 34.3°F1.3°C 89% 3.0 mph SSW4.8 kmh SSW 14.0 mph22.5 kmh 29.61 in1002.7 mb 0.00 in0.0 mm 0.00 in0.0 mm 0.00 in0.0 mm
03:33 AM 37.1°F2.8°C 34.2°F1.2°C 89% 4.0 mph SSW6.4 kmh SSW 14.0 mph22.5 kmh 29.61 in1002.7 mb 0.00 in0.0 mm 0.00 in0.0 mm 0.00 in0.0 mm
03:30 AM 37.1°F2.8°C 34.2°F1.2°C 89% 5.0 mph SSW8.0 kmh SSW 14.0 mph22.5 kmh 29.61 in1002.7 mb 0.00 in0.0 mm 0.00 in0.0 mm 0.00 in0.0 mm
03:29 AM 37.1°F2.8°C 34.2°F1.2°C 89% 5.0 mph SW8.0 kmh SW 14.0 mph22.5 kmh 29.61 in1002.7 mb 0.00 in0.0 mm 0.00 in0.0 mm 0.00 in0.0 mm
03:28 AM 37.1°F2.8°C 34.2°F1.2°C 89% 4.0 mph SW6.4 kmh SW 14.0 mph22.5 kmh 29.61 in1002.7 mb 0.00 in0.0 mm 0.00 in0.0 mm 0.00 in0.0 mm
03:25 AM 37.1°F2.8°C 34.2°F1.2°C 89% 2.0 mph SSW3.2 kmh SSW 14.0 mph22.5 kmh 29.62 in1003.0 mb 0.00 in0.0 mm 0.00 in0.0 mm 0.00 in0.0 mm
03:24 AM 37.1°F2.8°C 34.2°F1.2°C 89% 6.0 mph SSW9.7 kmh SSW 14.0 mph22.5 kmh 29.62 in1003.0 mb 0.00 in0.0 mm 0.00 in0.0 mm 0.00 in0.0 mm
03:23 AM 37.0°F2.8°C 34.1°F1.2°C 89% 3.0 mph SSW4.8 kmh SSW 14.0 mph22.5 kmh 29.62 in1003.0 mb 0.00 in0.0 mm 0.00 in0.0 mm 0.00 in0.0 mm
03:20 AM 37.1°F2.8°C 34.2°F1.2°C 89% 2.0 mph SSW3.2 kmh SSW 14.0 mph22.5 kmh 29.62 in1003.0 mb 0.00 in0.0 mm 0.00 in0.0 mm 0.00 in0.0 mm
03:19 AM 37.1°F2.8°C 34.2°F1.2°C 89% 8.0 mph SW12.9 kmh SW 14.0 mph22.5 kmh 29.62 in1003.0 mb 0.00 in0.0 mm 0.00 in0.0 mm 0.00 in0.0 mm
03:18 AM 37.1°F2.8°C 34.2°F1.2°C 89% 4.0 mph SSW6.4 kmh SSW 14.0 mph22.5 kmh 29.62 in1003.0 mb 0.00 in0.0 mm 0.00 in0.0 mm 0.00 in0.0 mm
03:15 AM 37.1°F2.8°C 34.2°F1.2°C 89% 10.0 mph SW16.1 kmh SW 14.0 mph22.5 kmh 29.62 in1003.0 mb 0.00 in0.0 mm 0.00 in0.0 mm 0.00 in0.0 mm
03:14 AM 37.1°F2.8°C 34.2°F1.2°C 89% 4.0 mph SSW6.4 kmh SSW 14.0 mph22.5 kmh 29.62 in1003.0 mb 0.00 in0.0 mm 0.00 in0.0 mm 0.00 in0.0 mm
03:13 AM 37.1°F2.8°C 34.2°F1.2°C 89% 4.0 mph SSW6.4 kmh SSW 14.0 mph22.5 kmh 29.62 in1003.0 mb 0.00 in0.0 mm 0.00 in0.0 mm 0.00 in0.0 mm
03:10 AM 37.1°F2.8°C 34.2°F1.2°C 89% 2.0 mph SW3.2 kmh SW 14.0 mph22.5 kmh 29.62 in1003.0 mb 0.00 in0.0 mm 0.00 in0.0 mm 0.00 in0.0 mm
03:09 AM 37.1°F2.8°C 34.2°F1.2°C 89% 4.0 mph SW6.4 kmh SW 14.0 mph22.5 kmh 29.62 in1003.0 mb 0.00 in0.0 mm 0.00 in0.0 mm 0.00 in0.0 mm
03:08 AM 37.1°F2.8°C 33.9°F1.1°C 88% 8.0 mph SW12.9 kmh SW 14.0 mph22.5 kmh 29.63 in1003.4 mb 0.00 in0.0 mm 0.00 in0.0 mm 0.00 in0.0 mm
03:05 AM 37.1°F2.8°C 33.9°F1.1°C 88% 4.0 mph SSW6.4 kmh SSW 11.0 mph17.7 kmh 29.63 in1003.4 mb 0.00 in0.0 mm 0.00 in0.0 mm 0.00 in0.0 mm
03:04 AM 37.1°F2.8°C 33.9°F1.1°C 88% 8.0 mph SSW12.9 kmh SSW 10.0 mph16.1 kmh 29.63 in1003.4 mb 0.00 in0.0 mm 0.00 in0.0 mm 0.00 in0.0 mm
03:03 AM 37.1°F2.8°C 33.9°F1.1°C 88% 7.0 mph SSW11.3 kmh SSW 10.0 mph16.1 kmh 29.63 in1003.4 mb 0.00 in0.0 mm 0.00 in0.0 mm 0.00 in0.0 mm
03:00 AM 37.2°F2.9°C 34.0°F1.1°C 88% 6.0 mph SSW9.7 kmh SSW 7.0 mph11.3 kmh 29.63 in1003.4 mb 0.00 in0.0 mm 0.00 in0.0 mm 0.00 in0.0 mm
02:59 AM 37.2°F2.9°C 34.0°F1.1°C 88% 2.0 mph SSW3.2 kmh SSW 17.0 mph27.4 kmh 29.63 in1003.4 mb 0.00 in0.0 mm 0.00 in0.0 mm 0.00 in0.0 mm
02:58 AM 37.2°F2.9°C 34.0°F1.1°C 88% 6.0 mph SSW9.7 kmh SSW 17.0 mph27.4 kmh 29.63 in1003.4 mb 0.00 in0.0 mm 0.00 in0.0 mm 0.00 in0.0 mm
02:55 AM 37.1°F2.8°C 33.9°F1.1°C 88% 5.0 mph SSW8.0 kmh SSW 17.0 mph27.4 kmh 29.64 in1003.7 mb 0.00 in0.0 mm 0.00 in0.0 mm 0.00 in0.0 mm
02:54 AM 37.1°F2.8°C 33.9°F1.1°C 88% 4.0 mph SSW6.4 kmh SSW 17.0 mph27.4 kmh 29.64 in1003.7 mb 0.00 in0.0 mm 0.00 in0.0 mm 0.00 in0.0 mm
02:53 AM 37.1°F2.8°C 33.9°F1.1°C 88% 1.0 mph SSW1.6 kmh SSW 17.0 mph27.4 kmh 29.64 in1003.7 mb 0.00 in0.0 mm 0.00 in0.0 mm 0.00 in0.0 mm
02:50 AM 37.1°F2.8°C 33.6°F0.9°C 87% 4.0 mph SSW6.4 kmh SSW 17.0 mph27.4 kmh 29.64 in1003.7 mb 0.00 in0.0 mm 0.00 in0.0 mm 0.00 in0.0 mm
02:49 AM 37.1°F2.8°C 33.6°F0.9°C 87% 8.0 mph SSW12.9 kmh SSW 17.0 mph27.4 kmh 29.64 in1003.7 mb 0.00 in0.0 mm 0.00 in0.0 mm 0.00 in0.0 mm
02:48 AM 37.1°F2.8°C 33.6°F0.9°C 87% 9.0 mph SSW14.5 kmh SSW 17.0 mph27.4 kmh 29.64 in1003.7 mb 0.00 in0.0 mm 0.00 in0.0 mm 0.00 in0.0 mm
02:45 AM 37.1°F2.8°C 33.6°F0.9°C 87% 5.0 mph SSW8.0 kmh SSW 17.0 mph27.4 kmh 29.64 in1003.7 mb 0.00 in0.0 mm 0.00 in0.0 mm 0.00 in0.0 mm
02:44 AM 37.1°F2.8°C 33.6°F0.9°C 87% 8.0 mph SSW12.9 kmh SSW 17.0 mph27.4 kmh 29.64 in1003.7 mb 0.00 in0.0 mm 0.00 in0.0 mm 0.00 in0.0 mm
02:43 AM 37.1°F2.8°C 33.6°F0.9°C 87% 7.0 mph SSW11.3 kmh SSW 17.0 mph27.4 kmh 29.64 in1003.7 mb 0.00 in0.0 mm 0.00 in0.0 mm 0.00 in0.0 mm
02:40 AM 37.1°F2.8°C 33.6°F0.9°C 87% 5.0 mph SW8.0 kmh SW 17.0 mph27.4 kmh 29.65 in1004.1 mb 0.00 in0.0 mm 0.00 in0.0 mm 0.00 in0.0 mm
02:39 AM 37.1°F2.8°C 33.6°F0.9°C 87% 4.0 mph SW6.4 kmh SW 17.0 mph27.4 kmh 29.65 in1004.1 mb 0.00 in0.0 mm 0.00 in0.0 mm 0.00 in0.0 mm
02:38 AM 37.1°F2.8°C 33.6°F0.9°C 87% 4.0 mph SW6.4 kmh SW 17.0 mph27.4 kmh 29.65 in1004.1 mb 0.00 in0.0 mm 0.00 in0.0 mm 0.00 in0.0 mm
02:35 AM 37.1°F2.8°C 33.3°F0.7°C 86% 6.0 mph SW9.7 kmh SW 17.0 mph27.4 kmh 29.65 in1004.1 mb 0.00 in0.0 mm 0.00 in0.0 mm 0.00 in0.0 mm
02:34 AM 37.1°F2.8°C 33.3°F0.7°C 86% 5.0 mph SW8.0 kmh SW 17.0 mph27.4 kmh 29.65 in1004.1 mb 0.00 in0.0 mm 0.00 in0.0 mm 0.00 in0.0 mm
02:33 AM 37.0°F2.8°C 33.2°F0.7°C 86% 2.0 mph SW3.2 kmh SW 17.0 mph27.4 kmh 29.65 in1004.1 mb 0.00 in0.0 mm 0.00 in0.0 mm 0.00 in0.0 mm
02:30 AM 37.0°F2.8°C 33.2°F0.7°C 86% 3.0 mph S4.8 kmh S 17.0 mph27.4 kmh 29.66 in1004.4 mb 0.00 in0.0 mm 0.00 in0.0 mm 0.00 in0.0 mm
02:29 AM 37.0°F2.8°C 33.2°F0.7°C 86% 5.0 mph S8.0 kmh S 17.0 mph27.4 kmh 29.66 in1004.4 mb 0.00 in0.0 mm 0.00 in0.0 mm 0.00 in0.0 mm
02:28 AM 37.0°F2.8°C 33.2°F0.7°C 86% 4.0 mph SW6.4 kmh SW 17.0 mph27.4 kmh 29.66 in1004.4 mb 0.00 in0.0 mm 0.00 in0.0 mm 0.00 in0.0 mm
02:25 AM 37.0°F2.8°C 32.9°F0.5°C 85% 14.0 mph SSW22.5 kmh SSW 17.0 mph27.4 kmh 29.66 in1004.4 mb 0.00 in0.0 mm 0.00 in0.0 mm 0.00 in0.0 mm
02:24 AM 37.0°F2.8°C 32.9°F0.5°C 85% 8.0 mph SSW12.9 kmh SSW 17.0 mph27.4 kmh 29.66 in1004.4 mb 0.00 in0.0 mm 0.00 in0.0 mm 0.00 in0.0 mm
02:23 AM 37.0°F2.8°C 32.9°F0.5°C 85% 5.0 mph SW8.0 kmh SW 17.0 mph27.4 kmh 29.66 in1004.4 mb 0.00 in0.0 mm 0.00 in0.0 mm 0.00 in0.0 mm
02:20 AM 37.0°F2.8°C 32.9°F0.5°C 85% 4.0 mph SSW6.4 kmh SSW 17.0 mph27.4 kmh 29.66 in1004.4 mb 0.00 in0.0 mm 0.00 in0.0 mm 0.00 in0.0 mm
02:19 AM 37.1°F2.8°C 32.7°F0.4°C 84% 7.0 mph SSW11.3 kmh SSW 17.0 mph27.4 kmh 29.66 in1004.4 mb 0.00 in0.0 mm 0.00 in0.0 mm 0.00 in0.0 mm
02:18 AM 37.1°F2.8°C 32.7°F0.4°C 84% 7.0 mph SSW11.3 kmh SSW 17.0 mph27.4 kmh 29.67 in1004.7 mb 0.00 in0.0 mm 0.00 in0.0 mm 0.00 in0.0 mm
02:15 AM 37.1°F2.8°C 32.7°F0.4°C 84% 5.0 mph S8.0 kmh S 17.0 mph27.4 kmh 29.67 in1004.7 mb 0.00 in0.0 mm 0.00 in0.0 mm 0.00 in0.0 mm
02:14 AM 37.1°F2.8°C 32.4°F0.2°C 83% 1.0 mph S1.6 kmh S 17.0 mph27.4 kmh 29.67 in1004.7 mb 0.00 in0.0 mm 0.00 in0.0 mm 0.00 in0.0 mm
02:13 AM 37.2°F2.9°C 32.5°F0.3°C 83% 4.0 mph S6.4 kmh S 17.0 mph27.4 kmh 29.67 in1004.7 mb 0.00 in0.0 mm 0.00 in0.0 mm 0.00 in0.0 mm
02:10 AM 37.3°F2.9°C 32.6°F0.3°C 83% 4.0 mph S6.4 kmh S 17.0 mph27.4 kmh 29.67 in1004.7 mb 0.00 in0.0 mm 0.00 in0.0 mm 0.00 in0.0 mm
02:09 AM 37.3°F2.9°C 32.6°F0.3°C 83% 15.0 mph S24.1 kmh S 17.0 mph27.4 kmh 29.67 in1004.7 mb 0.00 in0.0 mm 0.00 in0.0 mm 0.00 in0.0 mm
02:08 AM 37.3°F2.9°C 32.3°F0.2°C 82% 12.0 mph S19.3 kmh S 16.0 mph25.7 kmh 29.67 in1004.7 mb 0.00 in0.0 mm 0.00 in0.0 mm 0.00 in0.0 mm
02:05 AM 37.5°F3.1°C 32.2°F0.1°C 81% 10.0 mph SSW16.1 kmh SSW 16.0 mph25.7 kmh 29.68 in1005.1 mb 0.00 in0.0 mm 0.00 in0.0 mm 0.00 in0.0 mm
02:04 AM 37.6°F3.1°C 32.3°F0.2°C 81% 10.0 mph SSW16.1 kmh SSW 15.0 mph24.1 kmh 29.67 in1004.7 mb 0.00 in0.0 mm 0.00 in0.0 mm 0.00 in0.0 mm
02:03 AM 37.6°F3.1°C 32.3°F0.2°C 81% 9.0 mph S14.5 kmh S 15.0 mph24.1 kmh 29.68 in1005.1 mb 0.00 in0.0 mm 0.00 in0.0 mm 0.00 in0.0 mm
02:00 AM 37.7°F3.2°C 32.1°F0.1°C 80% 5.0 mph SSW8.0 kmh SSW 5.0 mph8.0 kmh 29.68 in1005.1 mb 0.00 in0.0 mm 0.00 in0.0 mm 0.00 in0.0 mm
01:59 AM 37.8°F3.2°C 32.2°F0.1°C 80% 6.0 mph S9.7 kmh S 24.0 mph38.6 kmh 29.68 in1005.1 mb 0.00 in0.0 mm 0.00 in0.0 mm 0.00 in0.0 mm
01:58 AM 37.8°F3.2°C 31.9°F-0.1°C 79% 6.0 mph S9.7 kmh S 24.0 mph38.6 kmh 29.68 in1005.1 mb 0.00 in0.0 mm 0.00 in0.0 mm 0.00 in0.0 mm
01:55 AM 37.9°F3.3°C 31.7°F-0.2°C 78% 5.0 mph SSW8.0 kmh SSW 24.0 mph38.6 kmh 29.69 in1005.4 mb 0.00 in0.0 mm 0.00 in0.0 mm 0.00 in0.0 mm
01:54 AM 38.0°F3.3°C 31.8°F-0.1°C 78% 8.0 mph SSW12.9 kmh SSW 24.0 mph38.6 kmh 29.69 in1005.4 mb 0.00 in0.0 mm 0.00 in0.0 mm 0.00 in0.0 mm
01:53 AM 38.0°F3.3°C 31.8°F-0.1°C 78% 13.0 mph SSW20.9 kmh SSW 24.0 mph38.6 kmh 29.69 in1005.4 mb 0.00 in0.0 mm 0.00 in0.0 mm 0.00 in0.0 mm
01:50 AM 38.1°F3.4°C 31.5°F-0.3°C 77% 12.0 mph SSW19.3 kmh SSW 24.0 mph38.6 kmh 29.69 in1005.4 mb 0.00 in0.0 mm 0.00 in0.0 mm 0.00 in0.0 mm
01:49 AM 38.1°F3.4°C 31.5°F-0.3°C 77% 7.0 mph SSW11.3 kmh SSW 24.0 mph38.6 kmh 29.69 in1005.4 mb 0.00 in0.0 mm 0.00 in0.0 mm 0.00 in0.0 mm
01:48 AM 38.2°F3.4°C 31.3°F-0.4°C 76% 2.0 mph S3.2 kmh S 24.0 mph38.6 kmh 29.69 in1005.4 mb 0.00 in0.0 mm 0.00 in0.0 mm 0.00 in0.0 mm
01:45 AM 38.2°F3.4°C 31.3°F-0.4°C 76% 14.0 mph S22.5 kmh S 24.0 mph38.6 kmh 29.69 in1005.4 mb 0.00 in0.0 mm 0.00 in0.0 mm 0.00 in0.0 mm
01:44 AM 38.2°F3.4°C 31.3°F-0.4°C 76% 7.0 mph SW11.3 kmh SW 24.0 mph38.6 kmh 29.69 in1005.4 mb 0.00 in0.0 mm 0.00 in0.0 mm 0.00 in0.0 mm
01:43 AM 38.2°F3.4°C 31.0°F-0.6°C 75% 15.0 mph SSW24.1 kmh SSW 22.0 mph35.4 kmh 29.69 in1005.4 mb 0.00 in0.0 mm 0.00 in0.0 mm 0.00 in0.0 mm
01:40 AM 38.2°F3.4°C 31.0°F-0.6°C 75% 14.0 mph SSW22.5 kmh SSW 22.0 mph35.4 kmh 29.70 in1005.8 mb 0.00 in0.0 mm 0.00 in0.0 mm 0.00 in0.0 mm
01:39 AM 38.2°F3.4°C 31.0°F-0.6°C 75% 13.0 mph S20.9 kmh S 22.0 mph35.4 kmh 29.70 in1005.8 mb 0.00 in0.0 mm 0.00 in0.0 mm 0.00 in0.0 mm
01:38 AM 38.2°F3.4°C 31.3°F-0.4°C 76% 12.0 mph S19.3 kmh S 22.0 mph35.4 kmh 29.70 in1005.8 mb 0.00 in0.0 mm 0.00 in0.0 mm 0.00 in0.0 mm
01:35 AM 38.0°F3.3°C 31.1°F-0.5°C 76% 7.0 mph SW11.3 kmh SW 16.0 mph25.7 kmh 29.70 in1005.8 mb 0.00 in0.0 mm 0.00 in0.0 mm 0.00 in0.0 mm
01:34 AM 38.0°F3.3°C 31.1°F-0.5°C 76% 11.0 mph SW17.7 kmh SW 16.0 mph25.7 kmh 29.70 in1005.8 mb 0.00 in0.0 mm 0.00 in0.0 mm 0.00 in0.0 mm
01:33 AM 38.0°F3.3°C 31.1°F-0.5°C 76% 10.0 mph SSW16.1 kmh SSW 16.0 mph25.7 kmh 29.70 in1005.8 mb 0.00 in0.0 mm 0.00 in0.0 mm 0.00 in0.0 mm
01:30 AM 37.8°F3.2°C 31.3°F-0.4°C 77% 10.0 mph SSW16.1 kmh SSW 14.0 mph22.5 kmh 29.70 in1005.8 mb 0.00 in0.0 mm 0.00 in0.0 mm 0.00 in0.0 mm
01:29 AM 37.7°F3.2°C 31.2°F-0.4°C 77% 3.0 mph SSW4.8 kmh SSW 14.0 mph22.5 kmh 29.70 in1005.8 mb 0.00 in0.0 mm 0.00 in0.0 mm 0.00 in0.0 mm
01:28 AM 37.7°F3.2°C 31.2°F-0.4°C 77% 7.0 mph SW11.3 kmh SW 14.0 mph22.5 kmh 29.70 in1005.8 mb 0.00 in0.0 mm 0.00 in0.0 mm 0.00 in0.0 mm
01:25 AM 37.5°F3.1°C 31.3°F-0.4°C 78% 3.0 mph SW4.8 kmh SW 14.0 mph22.5 kmh 29.70 in1005.8 mb 0.00 in0.0 mm 0.00 in0.0 mm 0.00 in0.0 mm
01:24 AM 37.5°F3.1°C 31.3°F-0.4°C 78% 6.0 mph SW9.7 kmh SW 14.0 mph22.5 kmh 29.70 in1005.8 mb 0.00 in0.0 mm 0.00 in0.0 mm 0.00 in0.0 mm
01:23 AM 37.4°F3.0°C 31.2°F-0.4°C 78% 6.0 mph SW9.7 kmh SW 14.0 mph22.5 kmh 29.71 in1006.1 mb 0.00 in0.0 mm 0.00 in0.0 mm 0.00 in0.0 mm
01:20 AM 37.3°F2.9°C 31.1°F-0.5°C 78% 7.0 mph S11.3 kmh S 14.0 mph22.5 kmh 29.71 in1006.1 mb 0.00 in0.0 mm 0.00 in0.0 mm 0.00 in0.0 mm
01:19 AM 37.3°F2.9°C 31.4°F-0.3°C 79% 2.0 mph SSW3.2 kmh SSW 12.0 mph19.3 kmh 29.71 in1006.1 mb 0.00 in0.0 mm 0.00 in0.0 mm 0.00 in0.0 mm
01:18 AM 37.2°F2.9°C 31.0°F-0.6°C 78% 2.0 mph SSW3.2 kmh SSW 12.0 mph19.3 kmh 29.71 in1006.1 mb 0.00 in0.0 mm 0.00 in0.0 mm 0.00 in0.0 mm
01:15 AM 37.2°F2.9°C 31.3°F-0.4°C 79% 3.0 mph SSW4.8 kmh SSW 12.0 mph19.3 kmh 29.71 in1006.1 mb 0.00 in0.0 mm 0.00 in0.0 mm 0.00 in0.0 mm
01:14 AM 37.2°F2.9°C 31.3°F-0.4°C 79% 6.0 mph SSW9.7 kmh SSW 12.0 mph19.3 kmh 29.71 in1006.1 mb 0.00 in0.0 mm 0.00 in0.0 mm 0.00 in0.0 mm
01:13 AM 37.1°F2.8°C 31.2°F-0.4°C 79% 4.0 mph SSW6.4 kmh SSW 12.0 mph19.3 kmh 29.72 in1006.4 mb 0.00 in0.0 mm 0.00 in0.0 mm 0.00 in0.0 mm
01:10 AM 37.1°F2.8°C 31.2°F-0.4°C 79% 5.0 mph S8.0 kmh S 10.0 mph16.1 kmh 29.72 in1006.4 mb 0.00 in0.0 mm 0.00 in0.0 mm 0.00 in0.0 mm
01:09 AM 37.1°F2.8°C 31.2°F-0.4°C 79% 6.0 mph S9.7 kmh S 10.0 mph16.1 kmh 29.72 in1006.4 mb 0.00 in0.0 mm 0.00 in0.0 mm 0.00 in0.0 mm
01:08 AM 37.1°F2.8°C 31.2°F-0.4°C 79% 6.0 mph S9.7 kmh S 10.0 mph16.1 kmh 29.72 in1006.4 mb 0.00 in0.0 mm 0.00 in0.0 mm 0.00 in0.0 mm
01:05 AM 37.1°F2.8°C 31.2°F-0.4°C 79% 5.0 mph S8.0 kmh S 10.0 mph16.1 kmh 29.72 in1006.4 mb 0.00 in0.0 mm 0.00 in0.0 mm 0.00 in0.0 mm
01:03 AM 37.0°F2.8°C 31.1°F-0.5°C 79% 5.0 mph S8.0 kmh S 9.0 mph14.5 kmh 29.72 in1006.4 mb 0.00 in0.0 mm 0.00 in0.0 mm 0.00 in0.0 mm
01:00 AM 37.0°F2.8°C 31.1°F-0.5°C 79% 7.0 mph SSW11.3 kmh SSW 7.0 mph11.3 kmh 29.73 in1006.8 mb 0.00 in0.0 mm 0.00 in0.0 mm 0.00 in0.0 mm
12:59 AM 37.0°F2.8°C 31.1°F-0.5°C 79% 7.0 mph SSW11.3 kmh SSW 12.0 mph19.3 kmh 29.73 in1006.8 mb 0.00 in0.0 mm 0.00 in0.0 mm 0.00 in0.0 mm
12:58 AM 37.0°F2.8°C 31.1°F-0.5°C 79% 5.0 mph SSW8.0 kmh SSW 12.0 mph19.3 kmh 29.73 in1006.8 mb 0.00 in0.0 mm 0.00 in0.0 mm 0.00 in0.0 mm
12:55 AM 37.0°F2.8°C 31.4°F-0.3°C 80% 2.0 mph S3.2 kmh S 12.0 mph19.3 kmh 29.73 in1006.8 mb 0.00 in0.0 mm 0.00 in0.0 mm 0.00 in0.0 mm
12:54 AM 37.0°F2.8°C 31.4°F-0.3°C 80% 7.0 mph S11.3 kmh S 12.0 mph19.3 kmh 29.73 in1006.8 mb 0.00 in0.0 mm 0.00 in0.0 mm 0.00 in0.0 mm
12:53 AM 37.0°F2.8°C 31.4°F-0.3°C 80% 6.0 mph S9.7 kmh S 12.0 mph19.3 kmh 29.73 in1006.8 mb 0.00 in0.0 mm 0.00 in0.0 mm 0.00 in0.0 mm
12:50 AM 37.0°F2.8°C 31.4°F-0.3°C 80% 2.0 mph S3.2 kmh S 11.0 mph17.7 kmh 29.74 in1007.1 mb 0.00 in0.0 mm 0.00 in0.0 mm 0.00 in0.0 mm
12:49 AM 37.0°F2.8°C 31.4°F-0.3°C 80% 5.0 mph S8.0 kmh S 11.0 mph17.7 kmh 29.74 in1007.1 mb 0.00 in0.0 mm 0.00 in0.0 mm 0.00 in0.0 mm
12:48 AM 37.0°F2.8°C 31.4°F-0.3°C 80% 5.0 mph S8.0 kmh S 11.0 mph17.7 kmh 29.74 in1007.1 mb 0.00 in0.0 mm 0.00 in0.0 mm 0.00 in0.0 mm
12:45 AM 37.0°F2.8°C 31.4°F-0.3°C 80% 6.0 mph S9.7 kmh S 11.0 mph17.7 kmh 29.74 in1007.1 mb 0.00 in0.0 mm 0.00 in0.0 mm 0.00 in0.0 mm
12:44 AM 37.0°F2.8°C 31.4°F-0.3°C 80% 5.0 mph S8.0 kmh S 11.0 mph17.7 kmh 29.74 in1007.1 mb 0.00 in0.0 mm 0.00 in0.0 mm 0.00 in0.0 mm
12:43 AM 37.0°F2.8°C 31.4°F-0.3°C 80% 6.0 mph S9.7 kmh S 11.0 mph17.7 kmh 29.75 in1007.5 mb 0.00 in0.0 mm 0.00 in0.0 mm 0.00 in0.0 mm
12:39 AM 37.0°F2.8°C 31.4°F-0.3°C 80% 6.0 mph S9.7 kmh S 11.0 mph17.7 kmh 29.75 in1007.5 mb 0.00 in0.0 mm 0.00 in0.0 mm 0.00 in0.0 mm
12:38 AM 37.0°F2.8°C 31.4°F-0.3°C 80% 7.0 mph S11.3 kmh S 11.0 mph17.7 kmh 29.75 in1007.5 mb 0.00 in0.0 mm 0.00 in0.0 mm 0.00 in0.0 mm
12:35 AM 36.9°F2.7°C 31.6°F-0.2°C 81% 8.0 mph S12.9 kmh S 11.0 mph17.7 kmh 29.75 in1007.5 mb 0.00 in0.0 mm 0.00 in0.0 mm 0.00 in0.0 mm
12:34 AM 36.9°F2.7°C 31.6°F-0.2°C 81% 7.0 mph S11.3 kmh S 11.0 mph17.7 kmh 29.75 in1007.5 mb 0.00 in0.0 mm 0.00 in0.0 mm 0.00 in0.0 mm
12:33 AM 36.8°F2.7°C 31.5°F-0.3°C 81% 5.0 mph S8.0 kmh S 11.0 mph17.7 kmh 29.76 in1007.8 mb 0.00 in0.0 mm 0.00 in0.0 mm 0.00 in0.0 mm
12:30 AM 36.8°F2.7°C 31.8°F-0.1°C 82% 5.0 mph S8.0 kmh S 11.0 mph17.7 kmh 29.76 in1007.8 mb 0.00 in0.0 mm 0.00 in0.0 mm 0.00 in0.0 mm
12:29 AM 36.8°F2.7°C 31.8°F-0.1°C 82% 5.0 mph S8.0 kmh S 11.0 mph17.7 kmh 29.76 in1007.8 mb 0.00 in0.0 mm 0.00 in0.0 mm 0.00 in0.0 mm
12:28 AM 36.7°F2.6°C 31.7°F-0.2°C 82% 4.0 mph S6.4 kmh S 11.0 mph17.7 kmh 29.76 in1007.8 mb 0.00 in0.0 mm 0.00 in0.0 mm 0.00 in0.0 mm
12:25 AM 36.6°F2.6°C 31.6°F-0.2°C 82% 8.0 mph SSW12.9 kmh SSW 11.0 mph17.7 kmh 29.77 in1008.1 mb 0.00 in0.0 mm 0.00 in0.0 mm 0.00 in0.0 mm
12:24 AM 36.6°F2.6°C 31.6°F-0.2°C 82% 7.0 mph SSW11.3 kmh SSW 11.0 mph17.7 kmh 29.77 in1008.1 mb 0.00 in0.0 mm 0.00 in0.0 mm 0.00 in0.0 mm
12:23 AM 36.5°F2.5°C 31.5°F-0.3°C 82% 4.0 mph SSW6.4 kmh SSW 11.0 mph17.7 kmh 29.77 in1008.1 mb 0.00 in0.0 mm 0.00 in0.0 mm 0.00 in0.0 mm
12:20 AM 36.5°F2.5°C 31.8°F-0.1°C 83% 7.0 mph SSW11.3 kmh SSW 11.0 mph17.7 kmh 29.77 in1008.1 mb 0.00 in0.0 mm 0.00 in0.0 mm 0.00 in0.0 mm
12:19 AM 36.4°F2.4°C 31.7°F-0.2°C 83% 4.0 mph SSW6.4 kmh SSW 11.0 mph17.7 kmh 29.77 in1008.1 mb 0.00 in0.0 mm 0.00 in0.0 mm 0.00 in0.0 mm
12:18 AM 36.4°F2.4°C 31.7°F-0.2°C 83% 4.0 mph SSW6.4 kmh SSW 11.0 mph17.7 kmh 29.77 in1008.1 mb 0.00 in0.0 mm 0.00 in0.0 mm 0.00 in0.0 mm
12:15 AM 36.3°F2.4°C 31.6°F-0.2°C 83% 2.0 mph S3.2 kmh S 11.0 mph17.7 kmh 29.78 in1008.5 mb 0.00 in0.0 mm 0.00 in0.0 mm 0.00 in0.0 mm
12:14 AM 36.3°F2.4°C 31.6°F-0.2°C 83% 3.0 mph S4.8 kmh S 11.0 mph17.7 kmh 29.77 in1008.1 mb 0.00 in0.0 mm 0.00 in0.0 mm 0.00 in0.0 mm
12:13 AM 36.2°F2.3°C 31.5°F-0.3°C 83% 5.0 mph S8.0 kmh S 11.0 mph17.7 kmh 29.77 in1008.1 mb 0.00 in0.0 mm 0.00 in0.0 mm 0.00 in0.0 mm
12:10 AM 36.1°F2.3°C 31.7°F-0.2°C 84% 4.0 mph S6.4 kmh S 10.0 mph16.1 kmh 29.77 in1008.1 mb 0.00 in0.0 mm 0.00 in0.0 mm 0.00 in0.0 mm
12:09 AM 36.1°F2.3°C 31.7°F-0.2°C 84% 2.0 mph S3.2 kmh S 10.0 mph16.1 kmh 29.77 in1008.1 mb 0.00 in0.0 mm 0.00 in0.0 mm 0.00 in0.0 mm
12:08 AM 36.1°F2.3°C 31.7°F-0.2°C 84% 5.0 mph S8.0 kmh S 10.0 mph16.1 kmh 29.77 in1008.1 mb 0.00 in0.0 mm 0.00 in0.0 mm 0.00 in0.0 mm
12:05 AM 36.1°F2.3°C 31.7°F-0.2°C 84% 6.0 mph S9.7 kmh S 8.0 mph12.9 kmh 29.77 in1008.1 mb 0.00 in0.0 mm 0.00 in0.0 mm 0.00 in0.0 mm
12:04 AM 36.1°F2.3°C 31.7°F-0.2°C 84% 5.0 mph S8.0 kmh S 8.0 mph12.9 kmh 29.77 in1008.1 mb 0.00 in0.0 mm 0.00 in0.0 mm 0.00 in0.0 mm
12:03 AM 36.0°F2.2°C 31.6°F-0.2°C 84% 4.0 mph S6.4 kmh S 8.0 mph12.9 kmh 29.77 in1008.1 mb 0.00 in0.0 mm 0.00 in0.0 mm 0.00 in0.0 mm
12:00 AM 36.0°F2.2°C 31.6°F-0.2°C 84% 5.0 mph S8.0 kmh S 5.0 mph8.0 kmh 29.78 in1008.5 mb 0.00 in0.0 mm 0.00 in0.0 mm 0.00 in0.0 mm